»·PEaware :: FDX5954 KFAT-KPSP

FDX5954 :: KFAT-KPSP

FLIGHT INFORMATION

Flight Status: Arrived
Operator:
Federal Express
More flights by this operator :: More flights under this callsign
Pilot: Joshua M. (19482)
Aircraft: BOEING 737-800
(B738)
More flights by this aircraft type
Origin: KFAT Fresno Yosemite Intl
United States
Destination: KPSP Palm Springs Intl
United States
More flights between these airports :: More routes between these airports
Route: +BULL3 EHF V197 PMD V137 TRM
File this flight plan on PilotEdge
Remarks: Outdated FMC Default XPlane
Altitude:
(Current/Filed)
27,000ft
Speed:
(Current/Filed)
450kts
Departed: 24-Jul-18 06:10 PM
Arrived: 24-Jul-18 07:17 PM
Distance/Time
Traveled:
237nm/1:07
Distance/Time
To Go:
Arrived

Flight Plot

Page will automatically refresh every two minutes.

Flight plan parsing failed; only flown route is shown


Map Options




Map Legend


Flown Route
Filed Route
Departure Airport
Arrival Airport
Navaid (VOR, NDB)
Fix

Horizontal Profiles

Position Reports

Time Latitude Longitude Heading Altitude Ground
Speed
24-Jul-18 17:47 36.771855 -119.719039 125 342ft 0kts
24-Jul-18 17:48 36.771855 -119.719039 125 342ft 0kts
24-Jul-18 17:49 36.771855 -119.719039 125 342ft 0kts
24-Jul-18 17:50 36.771855 -119.719039 125 342ft 0kts
24-Jul-18 17:51 36.771855 -119.719039 125 342ft 0kts
24-Jul-18 17:52 36.771855 -119.719039 125 342ft 0kts
24-Jul-18 17:53 36.771855 -119.719039 125 342ft 0kts
24-Jul-18 17:54 36.771855 -119.719039 125 342ft 0kts
24-Jul-18 17:55 36.771855 -119.719039 125 342ft 0kts
24-Jul-18 17:56 36.771855 -119.719039 125 342ft 0kts
24-Jul-18 17:57 36.771855 -119.719039 125 342ft 0kts
24-Jul-18 17:58 36.771855 -119.719039 125 342ft 0kts
24-Jul-18 17:59 36.771855 -119.719039 125 342ft 0kts
24-Jul-18 18:00 36.771856 -119.719039 125 342ft 0kts
24-Jul-18 18:01 36.772032 -119.719347 125 342ft 2kts
24-Jul-18 18:02 36.772286 -119.719790 125 342ft 2kts
24-Jul-18 18:03 36.772317 -119.719845 125 342ft 0kts
24-Jul-18 18:04 36.772317 -119.719845 125 342ft 0kts
24-Jul-18 18:05 36.772285 -119.719782 118 342ft 1kts
24-Jul-18 18:06 36.773132 -119.718253 60 342ft 9kts
24-Jul-18 18:07 36.771288 -119.714286 125 342ft 18kts
24-Jul-18 18:08 36.769873 -119.711723 128 342ft 13kts
24-Jul-18 18:09 36.767588 -119.707160 90 342ft 18kts
24-Jul-18 18:10 36.768705 -119.703940 13 342ft 8kts
24-Jul-18 18:11 36.773820 -119.712288 305 342ft 115kts
24-Jul-18 18:12 36.796355 -119.752559 304 1741ft 188kts
24-Jul-18 18:13 36.805146 -119.805954 237 3914ft 197kts
24-Jul-18 18:14 36.769733 -119.815056 172 5318ft 183kts
24-Jul-18 18:15 36.723254 -119.805574 173 6738ft 231kts
24-Jul-18 18:16 36.669373 -119.779057 156 8100ft 236kts
24-Jul-18 18:17 36.613431 -119.746315 156 9508ft 240kts
24-Jul-18 18:18 36.558919 -119.714491 155 10858ft 244kts
24-Jul-18 18:19 36.508564 -119.685142 155 12088ft 247kts
24-Jul-18 18:20 36.453775 -119.653213 156 13406ft 251kts
24-Jul-18 18:21 36.402430 -119.623370 156 14621ft 255kts
24-Jul-18 18:22 36.346119 -119.590701 157 15935ft 259kts
24-Jul-18 18:23 36.286789 -119.556339 157 17299ft 262kts
24-Jul-18 18:24 36.240013 -119.529290 158 18361ft 265kts
24-Jul-18 18:25 36.192042 -119.501586 158 19438ft 268kts
24-Jul-18 18:26 36.129739 -119.465662 158 20819ft 272kts
24-Jul-18 18:27 36.075704 -119.434552 159 22003ft 272kts
24-Jul-18 18:28 36.020171 -119.402664 159 23018ft 287kts
24-Jul-18 18:29 35.952506 -119.363821 158 23331ft 298kts
24-Jul-18 18:30 35.878206 -119.321290 159 23099ft 307kts
24-Jul-18 18:31 35.801491 -119.277434 159 23099ft 303kts
24-Jul-18 18:32 35.725195 -119.233933 159 23111ft 304kts
24-Jul-18 18:33 35.647918 -119.189975 159 23217ft 312kts
24-Jul-18 18:34 35.581018 -119.152012 159 23407ft 340kts
24-Jul-18 18:35 35.489832 -119.098315 148 23926ft 390kts
24-Jul-18 18:36 35.398698 -118.991572 139 25560ft 359kts
24-Jul-18 18:37 35.323576 -118.899817 138 25288ft 392kts
24-Jul-18 18:38 35.248065 -118.807566 138 26931ft 382kts
24-Jul-18 18:39 35.185850 -118.731752 139 27996ft 378kts
24-Jul-18 18:40 35.111980 -118.641975 139 29143ft 373kts
24-Jul-18 18:41 35.037462 -118.551726 139 29245ft 395kts
24-Jul-18 18:42 34.967412 -118.446720 126 29206ft 401kts
24-Jul-18 18:43 34.908467 -118.335745 127 29103ft 395kts
24-Jul-18 18:44 34.850387 -118.226408 126 29058ft 391kts
24-Jul-18 18:45 34.793051 -118.118794 126 29063ft 392kts
24-Jul-18 18:46 34.734156 -118.008604 126 29046ft 392kts
24-Jul-18 18:47 34.675184 -117.898615 126 29027ft 392kts
24-Jul-18 18:48 34.616717 -117.789886 126 28961ft 386kts
24-Jul-18 18:49 34.559529 -117.683967 125 26352ft 386kts
24-Jul-18 18:50 34.506097 -117.585196 125 24618ft 371kts
24-Jul-18 18:51 34.454991 -117.490938 125 23608ft 338kts
24-Jul-18 18:52 34.405676 -117.400279 124 21854ft 331kts
24-Jul-18 18:53 34.358982 -117.314636 124 20178ft 324kts
24-Jul-18 18:54 34.312668 -117.229880 124 18528ft 319kts
24-Jul-18 18:55 34.264917 -117.142710 124 16833ft 313kts
24-Jul-18 18:56 34.218462 -117.058059 124 15176ft 309kts
24-Jul-18 18:57 34.174796 -116.978705 124 14122ft 310kts
24-Jul-18 18:58 34.129281 -116.896187 124 14118ft 309kts
24-Jul-18 18:59 34.086938 -116.812349 121 14090ft 311kts
24-Jul-18 19:00 34.044352 -116.722683 121 14044ft 309kts
24-Jul-18 19:01 34.001714 -116.633405 120 12401ft 306kts
24-Jul-18 19:02 33.959459 -116.545730 120 10876ft 300kts
24-Jul-18 19:03 33.918403 -116.460081 120 9684ft 283kts
24-Jul-18 19:04 33.885815 -116.391478 120 9570ft 236kts
24-Jul-18 19:05 33.853727 -116.323421 121 8455ft 234kts
24-Jul-18 19:06 33.825040 -116.262405 121 7267ft 230kts
24-Jul-18 19:07 33.792681 -116.209957 131 6335ft 228kts
24-Jul-18 19:08 33.752245 -116.169797 178 5276ft 214kts
24-Jul-18 19:09 33.713387 -116.197017 253 4881ft 180kts
24-Jul-18 19:10 33.713735 -116.244072 271 4004ft 176kts
24-Jul-18 19:11 33.719524 -116.291390 291 3959ft 171kts
24-Jul-18 19:12 33.735147 -116.333491 291 3215ft 168kts
24-Jul-18 19:13 33.750679 -116.374460 291 1908ft 159kts
24-Jul-18 19:14 33.764391 -116.409675 294 883ft 158kts
24-Jul-18 19:15 33.783125 -116.450189 295 952ft 158kts
24-Jul-18 19:16 33.801377 -116.480266 314 752ft 162kts
24-Jul-18 19:17 33.825330 -116.503706 321 491ft 155kts
24-Jul-18 19:18 33.838737 -116.515894 323 485ft 33kts
24-Jul-18 19:19 33.839593 -116.517903 190 485ft 0kts
24-Jul-18 19:20 33.838495 -116.517161 145 485ft 15kts
24-Jul-18 19:21 33.833964 -116.513581 140 485ft 18kts
24-Jul-18 19:22 33.830121 -116.510212 143 485ft 15kts
24-Jul-18 19:23 33.826349 -116.506895 172 485ft 12kts
24-Jul-18 19:24 33.824100 -116.507043 168 485ft 5kts

Navigation Log

Ident Type
Flight plan parsing failed, navigation log unavailable